RJTI(METAR)
05/26 16:00
METAR RJTI 260700Z 12008KT 9999 -RA FEW020 BKN100 21/20 Q1006 RMK
1CU020 7AC100 A2972=
戻る
トップページへ戻る
IMOC Co,.Ltd.